YWMM weather

Wollomombi Airport
New South Wales, Australia

Public forecast

Using degrees Celsius for public forecast. Weather courtesy of forecast.io.

METAR (pilot weather report)

Closest report is Port Macquarie Airport, 67.4 nm (124.9 km) SE. Retrieved 2019/04/22 17:30 UTC (7 minutes ago):

YPMQ 221730Z AUTO 00000KT 1700 // SCT039 14/14 Q1024

TAF (pilot weather forecast)

Closest forecast is Tamworth Airport, 71.8 nm (133.0 km) WSW. Retrieved 2019/04/22 12:36 UTC (5 hours ago):

TAF TAF YSTW 221051Z 2212/2306 09008KT CAVOK